Time;durP1;ratioP1;P1;durP2;ratioP2;P2;SDS_P1;SDS_P2;PMS_P1;PMS_P2;Temp;Humidity;BMP_temperature;BMP_pressure;BME280_temperature;BME280_humidity;BME280_pressure;Samples;Min_cycle;Max_cycle;Signal;HPM_P1;HPM_P2
2023/05/03 00:01:13;;;;;;;;;;;19.90;98.80;;;;;;5074677;28;19923;-68
2023/05/03 00:03:39;;;;;;;;;;;19.90;98.60;;;;;;5076718;28;19912;-66
2023/05/03 00:06:13;;;;;;;;;;;20.00;98.80;;;;;;5078334;28;19912;-67
2023/05/03 00:08:39;;;;;;;;;;;19.90;98.20;;;;;;5076753;28;19908;-67
2023/05/03 00:11:06;;;;;;;;;;;20.00;97.80;;;;;;5076792;28;20195;-68
2023/05/03 00:13:33;;;;;;;;;;;20.10;97.70;;;;;;5077519;28;20368;-67
2023/05/03 00:16:00;;;;;;;;;;;20.00;97.40;;;;;;5078493;28;20298;-66
2023/05/03 00:18:27;;;;;;;;;;;20.10;97.50;;;;;;5076412;28;20275;-68
2023/05/03 00:20:56;;;;;;;;;;;20.30;97.50;;;;;;5077410;28;20515;-66
2023/05/03 00:23:23;;;;;;;;;;;20.30;97.00;;;;;;5077510;28;19912;-66
2023/05/03 00:25:53;;;;;;;;;;;20.30;96.80;;;;;;5078594;28;19908;-68
2023/05/03 00:28:20;;;;;;;;;;;20.30;97.10;;;;;;5077600;28;19912;-68
2023/05/03 00:30:47;;;;;;;;;;;20.40;96.40;;;;;;5077826;28;19920;-65
2023/05/03 00:33:14;;;;;;;;;;;20.50;96.70;;;;;;5059166;28;19909;-67
2023/05/03 00:35:40;;;;;;;;;;;20.50;96.00;;;;;;5076628;28;20003;-67
2023/05/03 00:38:07;;;;;;;;;;;20.60;95.70;;;;;;5077993;28;19995;-68
2023/05/03 00:40:34;;;;;;;;;;;20.70;95.80;;;;;;5076340;28;19919;-67
2023/05/03 00:43:00;;;;;;;;;;;20.80;95.90;;;;;;5077448;28;19912;-65
2023/05/03 00:45:29;;;;;;;;;;;20.90;95.60;;;;;;5076506;28;19908;-67
2023/05/03 00:47:56;;;;;;;;;;;20.80;94.90;;;;;;5077081;28;19940;-68
2023/05/03 00:50:23;;;;;;;;;;;21.00;94.90;;;;;;5077423;28;19999;-67
2023/05/03 00:52:50;;;;;;;;;;;21.00;95.00;;;;;;5076937;28;19944;-65
2023/05/03 00:55:17;;;;;;;;;;;21.10;94.10;;;;;;5076915;28;19908;-67
2023/05/03 00:57:43;;;;;;;;;;;21.20;93.90;;;;;;5076924;28;19919;-67
2023/05/03 01:00:12;;;;;;;;;;;21.30;93.50;;;;;;5076686;28;20416;-68
2023/05/03 01:02:39;;;;;;;;;;;21.40;93.60;;;;;;5076384;28;20271;-66
2023/05/03 01:05:06;;;;;;;;;;;21.40;93.10;;;;;;5076866;28;19912;-66
2023/05/03 01:07:40;;;;;;;;;;;21.60;92.80;;;;;;5076174;28;19908;-69
2023/05/03 01:10:06;;;;;;;;;;;21.90;93.70;;;;;;5075735;28;19990;-66
2023/05/03 01:12:45;;;;;;;;;;;21.90;92.30;;;;;;5075768;28;19922;-67
2023/05/03 01:15:32;;;;;;;;;;;22.10;90.30;;;;;;5077049;28;19994;-67
2023/05/03 01:18:02;;;;;;;;;;;22.20;88.80;;;;;;5077176;28;19919;-67
2023/05/03 01:20:29;;;;;;;;;;;22.30;86.60;;;;;;5076163;28;20478;-68
2023/05/03 01:22:59;;;;;;;;;;;22.30;85.40;;;;;;5077599;28;19919;-67
2023/05/03 01:25:26;;;;;;;;;;;22.30;86.30;;;;;;5077664;28;19908;-68
2023/05/03 01:27:53;;;;;;;;;;;22.40;84.90;;;;;;5075512;28;19980;-68
2023/05/03 01:30:21;;;;;;;;;;;22.50;83.40;;;;;;5075466;28;19926;-68
2023/05/03 01:32:47;;;;;;;;;;;22.50;83.20;;;;;;5074574;28;20632;-66
2023/05/03 01:35:26;;;;;;;;;;;22.70;82.30;;;;;;5076187;28;19958;-67
2023/05/03 01:37:54;;;;;;;;;;;22.80;82.30;;;;;;5075558;28;20010;-68
2023/05/03 01:40:22;;;;;;;;;;;22.80;80.80;;;;;;5076211;28;19924;-68
2023/05/03 01:42:50;;;;;;;;;;;23.00;81.80;;;;;;5073385;28;19936;-68
2023/05/03 01:45:17;;;;;;;;;;;23.00;80.80;;;;;;5075039;28;20327;-67
2023/05/03 01:47:43;;;;;;;;;;;23.10;80.30;;;;;;5076111;28;19912;-68
2023/05/03 01:50:10;;;;;;;;;;;23.20;81.30;;;;;;5076067;28;19908;-68
2023/05/03 01:52:37;;;;;;;;;;;23.30;79.60;;;;;;5075557;28;19924;-67
2023/05/03 01:55:04;;;;;;;;;;;23.30;78.60;;;;;;5076941;28;19908;-68
2023/05/03 01:57:30;;;;;;;;;;;23.30;78.20;;;;;;5076420;28;19919;-68
2023/05/03 01:59:57;;;;;;;;;;;23.40;78.80;;;;;;5057558;28;19912;-68
2023/05/03 02:02:23;;;;;;;;;;;23.50;78.30;;;;;;5075553;28;19916;-68
2023/05/03 02:04:50;;;;;;;;;;;23.60;77.90;;;;;;5075003;28;19962;-68
2023/05/03 02:07:17;;;;;;;;;;;23.60;77.20;;;;;;5075125;28;20006;-68
2023/05/03 02:09:43;;;;;;;;;;;23.60;76.30;;;;;;5054734;28;19923;-67
2023/05/03 02:12:10;;;;;;;;;;;23.60;75.80;;;;;;5063651;28;19920;-67
2023/05/03 02:14:37;;;;;;;;;;;23.70;75.30;;;;;;5075376;28;19912;-68
2023/05/03 02:17:03;;;;;;;;;;;23.80;75.60;;;;;;5076860;28;19919;-69
2023/05/03 02:19:30;;;;;;;;;;;23.80;74.70;;;;;;5075093;28;20526;-65
2023/05/03 02:21:57;;;;;;;;;;;23.80;74.80;;;;;;5074563;28;19965;-66
2023/05/03 02:24:23;;;;;;;;;;;23.80;74.30;;;;;;5075205;28;19919;-68
2023/05/03 02:26:50;;;;;;;;;;;23.90;72.00;;;;;;5074038;28;19912;-68
2023/05/03 02:29:17;;;;;;;;;;;23.90;71.80;;;;;;5074828;28;20007;-66
2023/05/03 02:31:43;;;;;;;;;;;24.00;70.60;;;;;;5074286;28;19920;-66
2023/05/03 02:34:10;;;;;;;;;;;24.10;71.30;;;;;;5075506;28;19919;-67
2023/05/03 02:36:38;;;;;;;;;;;24.40;70.60;;;;;;5073603;28;20479;-66
2023/05/03 02:39:04;;;;;;;;;;;24.50;71.60;;;;;;5073795;28;19938;-66
2023/05/03 02:41:31;;;;;;;;;;;25.10;70.30;;;;;;5074616;28;19928;-68
2023/05/03 02:43:57;;;;;;;;;;;25.40;68.50;;;;;;5074415;28;20000;-64
2023/05/03 02:46:24;;;;;;;;;;;25.60;68.40;;;;;;5075249;28;20337;-66
2023/05/03 02:48:51;;;;;;;;;;;25.90;67.40;;;;;;5074177;28;20261;-67
2023/05/03 02:51:18;;;;;;;;;;;26.10;67.30;;;;;;5075356;28;19951;-67
2023/05/03 02:53:45;;;;;;;;;;;26.40;66.30;;;;;;5075135;28;19919;-68
2023/05/03 02:56:11;;;;;;;;;;;26.80;64.80;;;;;;5076630;28;20296;-69
2023/05/03 02:58:38;;;;;;;;;;;27.00;63.30;;;;;;5074129;28;19909;-67
2023/05/03 03:01:05;;;;;;;;;;;26.90;63.80;;;;;;5074645;28;20421;-67
2023/05/03 03:03:31;;;;;;;;;;;26.80;63.80;;;;;;5074487;28;19955;-67
2023/05/03 03:05:58;;;;;;;;;;;26.60;62.70;;;;;;5073310;28;19915;-68
2023/05/03 03:08:25;;;;;;;;;;;26.60;62.60;;;;;;5074327;28;20379;-65
2023/05/03 03:10:51;;;;;;;;;;;27.70;60.70;;;;;;5074419;28;19912;-66
2023/05/03 03:13:18;;;;;;;;;;;28.50;60.50;;;;;;5075899;28;19914;-67
2023/05/03 03:15:45;;;;;;;;;;;28.90;58.80;;;;;;5075570;28;19915;-67
2023/05/03 03:18:11;;;;;;;;;;;29.30;58.10;;;;;;5075324;28;19928;-67
2023/05/03 03:20:38;;;;;;;;;;;30.40;56.70;;;;;;5074301;28;19908;-68
2023/05/03 03:23:04;;;;;;;;;;;31.30;55.00;;;;;;5074001;28;20564;-67
2023/05/03 03:25:31;;;;;;;;;;;31.00;54.50;;;;;;5074661;28;19912;-69
2023/05/03 03:27:58;;;;;;;;;;;30.90;53.80;;;;;;5074353;28;19908;-68
2023/05/03 03:30:24;;;;;;;;;;;31.30;54.10;;;;;;5056469;28;20003;-69
2023/05/03 03:32:51;;;;;;;;;;;31.80;53.20;;;;;;5075635;28;19927;-69
2023/05/03 03:35:18;;;;;;;;;;;31.80;52.50;;;;;;5075495;28;19966;-69
2023/05/03 03:37:45;;;;;;;;;;;32.10;51.80;;;;;;5077772;28;19913;-67
2023/05/03 03:40:12;;;;;;;;;;;31.80;52.30;;;;;;5078045;28;19912;-66
2023/05/03 03:42:39;;;;;;;;;;;32.20;51.90;;;;;;5077972;28;19912;-68
2023/05/03 03:45:06;;;;;;;;;;;32.20;51.00;;;;;;5077664;28;20311;-68
2023/05/03 03:47:32;;;;;;;;;;;32.40;51.40;;;;;;5078595;28;19915;-67
2023/05/03 03:50:02;;;;;;;;;;;32.70;49.80;;;;;;5077077;28;19916;-69
2023/05/03 03:52:29;;;;;;;;;;;32.70;50.30;;;;;;5078266;28;19916;-69
2023/05/03 03:54:55;;;;;;;;;;;33.60;49.70;;;;;;5078592;28;19919;-69
2023/05/03 03:57:24;;;;;;;;;;;34.00;48.80;;;;;;5079177;28;19919;-68
2023/05/03 03:59:50;;;;;;;;;;;34.20;48.00;;;;;;5079490;28;19912;-67
2023/05/03 04:02:17;;;;;;;;;;;33.60;48.10;;;;;;5077536;28;20435;-68
2023/05/03 04:04:43;;;;;;;;;;;33.20;47.90;;;;;;5082517;28;20003;-68
2023/05/03 04:07:10;;;;;;;;;;;33.10;48.00;;;;;;5081311;28;20353;-67
2023/05/03 04:09:37;;;;;;;;;;;33.30;47.70;;;;;;5077945;28;19912;-67
2023/05/03 04:12:04;;;;;;;;;;;33.30;47.40;;;;;;5077311;28;19920;-68
2023/05/03 04:14:31;;;;;;;;;;;33.10;48.00;;;;;;5060055;28;19912;-68
2023/05/03 04:16:57;;;;;;;;;;;33.10;48.40;;;;;;5078479;28;20357;-68
2023/05/03 04:19:27;;;;;;;;;;;33.20;47.70;;;;;;5079234;28;20014;-66
2023/05/03 04:21:54;;;;;;;;;;;32.90;47.60;;;;;;5078177;28;19908;-66
2023/05/03 04:24:20;;;;;;;;;;;33.40;47.90;;;;;;5077891;28;20303;-67
2023/05/03 04:26:47;;;;;;;;;;;33.90;47.00;;;;;;5077580;28;19917;-68
2023/05/03 04:29:14;;;;;;;;;;;34.30;46.80;;;;;;5077197;28;19995;-68
2023/05/03 04:31:41;;;;;;;;;;;34.40;46.70;;;;;;5076808;28;20261;-67
2023/05/03 04:34:09;;;;;;;;;;;34.20;46.10;;;;;;5077591;28;20258;-66
2023/05/03 04:36:36;;;;;;;;;;;33.30;46.90;;;;;;5076782;28;20697;-66
2023/05/03 04:39:05;;;;;;;;;;;32.50;47.00;;;;;;5077805;28;19908;-69
2023/05/03 04:41:32;;;;;;;;;;;31.40;47.70;;;;;;5077751;28;19920;-67
2023/05/03 04:43:59;;;;;;;;;;;31.00;48.70;;;;;;5078000;28;19915;-67
2023/05/03 04:46:25;;;;;;;;;;;30.80;48.10;;;;;;5077967;28;20041;-67
2023/05/03 04:48:52;;;;;;;;;;;29.80;48.60;;;;;;5075923;28;19908;-67
2023/05/03 04:51:18;;;;;;;;;;;28.90;49.40;;;;;;5077658;28;19923;-67
2023/05/03 04:53:45;;;;;;;;;;;28.10;50.10;;;;;;5076413;28;19909;-68
2023/05/03 04:56:12;;;;;;;;;;;27.60;51.20;;;;;;5077621;28;20748;-67
2023/05/03 04:58:38;;;;;;;;;;;27.20;51.30;;;;;;5074952;28;19912;-68
2023/05/03 05:01:05;;;;;;;;;;;27.10;52.30;;;;;;5091853;28;19908;-70
2023/05/03 05:03:32;;;;;;;;;;;26.90;51.60;;;;;;5078559;28;19912;-69
2023/05/03 05:05:59;;;;;;;;;;;26.90;52.30;;;;;;5076175;28;19908;-69
2023/05/03 05:08:25;;;;;;;;;;;26.90;51.80;;;;;;5077423;28;19908;-68
2023/05/03 05:10:52;;;;;;;;;;;27.00;51.70;;;;;;5075255;28;19923;-66
2023/05/03 05:13:19;;;;;;;;;;;27.10;51.40;;;;;;5077208;28;19951;-68
2023/05/03 05:15:45;;;;;;;;;;;27.40;52.30;;;;;;5075040;28;19908;-68
2023/05/03 05:18:12;;;;;;;;;;;28.60;52.30;;;;;;5076825;28;19908;-70
2023/05/03 05:20:39;;;;;;;;;;;30.00;50.20;;;;;;5073740;28;19912;-69
2023/05/03 05:23:05;;;;;;;;;;;30.90;49.60;;;;;;5074591;28;19919;-68
2023/05/03 05:25:32;;;;;;;;;;;31.60;48.60;;;;;;5073982;28;20518;-67
2023/05/03 05:27:59;;;;;;;;;;;31.50;49.10;;;;;;5071902;28;19916;-68
2023/05/03 05:30:25;;;;;;;;;;;31.30;49.90;;;;;;5075655;28;19991;-67
2023/05/03 05:32:52;;;;;;;;;;;30.60;49.60;;;;;;5073436;28;19955;-68
2023/05/03 05:35:19;;;;;;;;;;;29.50;50.80;;;;;;5074396;28;19991;-67
2023/05/03 05:37:45;;;;;;;;;;;28.50;51.80;;;;;;5070511;28;19915;-69
2023/05/03 05:40:12;;;;;;;;;;;27.80;53.10;;;;;;5075452;28;19919;-67
2023/05/03 05:42:39;;;;;;;;;;;27.30;53.40;;;;;;5074266;28;19973;-68
2023/05/03 05:45:06;;;;;;;;;;;26.80;54.90;;;;;;5073587;28;19942;-67
2023/05/03 05:47:33;;;;;;;;;;;26.50;55.30;;;;;;5073124;28;20003;-68
2023/05/03 05:50:00;;;;;;;;;;;26.40;55.10;;;;;;5073356;28;19991;-68
2023/05/03 05:52:26;;;;;;;;;;;26.30;55.80;;;;;;5075907;28;20606;-66
2023/05/03 05:54:53;;;;;;;;;;;26.50;55.50;;;;;;5071942;28;19992;-67
2023/05/03 05:57:19;;;;;;;;;;;26.60;55.80;;;;;;5074424;28;20353;-68
2023/05/03 05:59:46;;;;;;;;;;;26.70;55.70;;;;;;5072222;28;19920;-68
2023/05/03 06:02:15;;;;;;;;;;;27.10;55.10;;;;;;5074022;28;20423;-67
2023/05/03 06:04:42;;;;;;;;;;;27.80;54.20;;;;;;5075231;28;19964;-69
2023/05/03 06:07:08;;;;;;;;;;;28.50;53.90;;;;;;5073516;28;19919;-67
2023/05/03 06:09:35;;;;;;;;;;;29.40;53.30;;;;;;5074914;28;20391;-67
2023/05/03 06:12:02;;;;;;;;;;;29.70;53.50;;;;;;5075763;28;20614;-67
2023/05/03 06:14:28;;;;;;;;;;;30.10;53.00;;;;;;5074760;28;19914;-67
2023/05/03 06:16:55;;;;;;;;;;;30.20;52.60;;;;;;5071980;28;19923;-67
2023/05/03 06:19:23;;;;;;;;;;;30.30;52.50;;;;;;5073940;28;20437;-69
2023/05/03 06:21:50;;;;;;;;;;;29.70;52.10;;;;;;5073242;28;19920;-68
2023/05/03 06:24:20;;;;;;;;;;;28.60;52.70;;;;;;5073883;28;20445;-67
2023/05/03 06:26:49;;;;;;;;;;;27.60;54.00;;;;;;5074380;28;19918;-67
2023/05/03 06:29:16;;;;;;;;;;;26.70;55.00;;;;;;5072724;28;19915;-66
2023/05/03 06:31:43;;;;;;;;;;;26.00;55.70;;;;;;5074693;28;19924;-68
2023/05/03 06:34:10;;;;;;;;;;;25.40;56.80;;;;;;5069681;28;20360;-68
2023/05/03 06:36:36;;;;;;;;;;;25.00;57.50;;;;;;5073030;28;19980;-66
2023/05/03 06:39:03;;;;;;;;;;;24.80;58.00;;;;;;5074112;28;20454;-68
2023/05/03 06:41:31;;;;;;;;;;;24.30;58.80;;;;;;5072734;28;20392;-69
2023/05/03 06:43:58;;;;;;;;;;;24.00;59.40;;;;;;5073935;28;20125;-68
2023/05/03 06:46:26;;;;;;;;;;;23.70;60.30;;;;;;5072242;28;20571;-70
2023/05/03 06:48:56;;;;;;;;;;;23.50;60.70;;;;;;5073742;28;19919;-69
2023/05/03 06:51:26;;;;;;;;;;;23.20;61.10;;;;;;5073214;28;19916;-65
2023/05/03 06:53:55;;;;;;;;;;;22.90;62.00;;;;;;5074944;28;20168;-66
2023/05/03 06:56:22;;;;;;;;;;;22.70;62.10;;;;;;5069988;28;19922;-67
2023/05/03 06:58:49;;;;;;;;;;;22.60;63.10;;;;;;5075129;28;19961;-67
2023/05/03 07:01:17;;;;;;;;;;;22.40;63.30;;;;;;5073457;28;20024;-66
2023/05/03 07:03:44;;;;;;;;;;;22.30;63.50;;;;;;5073749;28;19947;-67
2023/05/03 07:06:11;;;;;;;;;;;22.20;63.60;;;;;;5069978;28;19916;-67
2023/05/03 07:08:37;;;;;;;;;;;22.10;64.40;;;;;;5074964;28;19962;-68
2023/05/03 07:11:04;;;;;;;;;;;22.00;64.70;;;;;;5074799;28;20019;-68
2023/05/03 07:13:31;;;;;;;;;;;21.90;64.60;;;;;;5077223;28;20359;-68
2023/05/03 07:15:57;;;;;;;;;;;21.90;65.00;;;;;;5079079;28;20050;-68
2023/05/03 07:18:24;;;;;;;;;;;21.70;65.40;;;;;;5078050;28;20376;-68
2023/05/03 07:20:51;;;;;;;;;;;21.60;65.90;;;;;;5075827;28;19912;-69
2023/05/03 07:23:17;;;;;;;;;;;21.50;66.10;;;;;;5058132;28;19919;-67
2023/05/03 07:25:47;;;;;;;;;;;21.50;66.00;;;;;;5078686;28;19946;-67
2023/05/03 07:28:15;;;;;;;;;;;21.50;66.40;;;;;;5058717;28;20022;-69
2023/05/03 07:30:42;;;;;;;;;;;21.40;66.50;;;;;;5074949;28;19908;-67
2023/05/03 07:33:09;;;;;;;;;;;21.30;66.40;;;;;;5077851;28;19920;-66
2023/05/03 07:35:35;;;;;;;;;;;21.30;66.70;;;;;;5058467;28;19908;-68
2023/05/03 07:38:02;;;;;;;;;;;21.30;67.00;;;;;;5079330;28;19912;-70
2023/05/03 07:40:31;;;;;;;;;;;21.30;66.80;;;;;;5079159;28;19968;-68
2023/05/03 07:42:59;;;;;;;;;;;21.20;67.00;;;;;;5078471;28;20672;-68
2023/05/03 07:45:26;;;;;;;;;;;21.20;67.10;;;;;;5079007;28;19980;-69
2023/05/03 07:47:52;;;;;;;;;;;21.20;67.50;;;;;;5076269;28;19912;-67
2023/05/03 07:50:19;;;;;;;;;;;21.10;67.00;;;;;;5077866;28;22468;-68
2023/05/03 07:52:49;;;;;;;;;;;21.20;67.30;;;;;;5074894;28;19920;-68
2023/05/03 07:55:17;;;;;;;;;;;21.10;67.10;;;;;;5077906;28;19909;-67
2023/05/03 07:57:44;;;;;;;;;;;21.10;67.90;;;;;;5075601;28;19919;-67
2023/05/03 08:00:11;;;;;;;;;;;21.10;67.60;;;;;;5076957;28;20058;-68
2023/05/03 08:02:38;;;;;;;;;;;21.10;67.80;;;;;;5075640;28;20002;-68
2023/05/03 08:05:05;;;;;;;;;;;21.10;67.70;;;;;;5078098;28;19919;-68
2023/05/03 08:07:31;;;;;;;;;;;21.10;68.00;;;;;;5077792;28;20058;-68
2023/05/03 08:09:58;;;;;;;;;;;21.10;67.80;;;;;;5075452;28;20289;-68
2023/05/03 08:12:25;;;;;;;;;;;21.10;68.10;;;;;;5076182;28;20485;-69
2023/05/03 08:14:53;;;;;;;;;;;21.10;67.80;;;;;;5074826;28;20380;-69
2023/05/03 08:17:20;;;;;;;;;;;21.20;67.80;;;;;;5075949;28;19912;-68
2023/05/03 08:19:47;;;;;;;;;;;21.10;68.20;;;;;;5074895;28;20274;-68
2023/05/03 08:22:15;;;;;;;;;;;21.10;68.70;;;;;;5078460;28;19974;-68
2023/05/03 08:24:42;;;;;;;;;;;21.10;68.70;;;;;;5071601;28;19912;-70
2023/05/03 08:27:09;;;;;;;;;;;21.10;68.80;;;;;;5076792;28;20307;-69
2023/05/03 08:29:37;;;;;;;;;;;21.00;68.90;;;;;;5076932;28;20371;-70
2023/05/03 08:32:04;;;;;;;;;;;21.00;68.80;;;;;;5076252;28;19983;-69
2023/05/03 08:34:31;;;;;;;;;;;21.00;69.50;;;;;;5076471;28;19920;-69
2023/05/03 08:36:58;;;;;;;;;;;20.90;69.90;;;;;;5075354;28;19987;-69
2023/05/03 08:39:29;;;;;;;;;;;20.80;69.70;;;;;;5074572;28;19919;-70
2023/05/03 08:41:57;;;;;;;;;;;20.80;70.00;;;;;;5076018;28;19920;-69
2023/05/03 08:44:26;;;;;;;;;;;20.80;70.10;;;;;;5064269;28;19908;-68
2023/05/03 08:46:53;;;;;;;;;;;20.80;70.40;;;;;;5073856;28;19912;-68
2023/05/03 08:49:20;;;;;;;;;;;20.60;70.70;;;;;;5073256;28;19969;-68
2023/05/03 08:51:48;;;;;;;;;;;20.60;70.80;;;;;;5076519;28;20402;-68
2023/05/03 08:54:20;;;;;;;;;;;20.60;70.90;;;;;;5054686;28;19934;-68
2023/05/03 08:56:47;;;;;;;;;;;20.60;71.60;;;;;;5074841;28;19912;-68
2023/05/03 08:59:16;;;;;;;;;;;20.50;72.30;;;;;;5074523;28;20447;-68
2023/05/03 09:01:42;;;;;;;;;;;20.50;72.90;;;;;;5062538;28;19920;-68
2023/05/03 09:04:10;;;;;;;;;;;20.40;73.50;;;;;;5073994;28;19916;-68
2023/05/03 09:06:37;;;;;;;;;;;20.30;74.00;;;;;;5075070;28;20081;-69
2023/05/03 09:09:06;;;;;;;;;;;20.30;74.40;;;;;;5073356;28;20031;-68
2023/05/03 09:11:33;;;;;;;;;;;20.20;74.80;;;;;;5074967;28;19928;-69
2023/05/03 09:14:11;;;;;;;;;;;20.10;75.10;;;;;;5074828;28;19963;-68
2023/05/03 09:16:39;;;;;;;;;;;20.10;75.60;;;;;;5075887;28;20345;-68
2023/05/03 09:19:08;;;;;;;;;;;20.10;75.90;;;;;;5074167;28;20455;-68
2023/05/03 09:21:35;;;;;;;;;;;20.00;76.30;;;;;;5075334;28;19912;-69
2023/05/03 09:24:11;;;;;;;;;;;19.90;76.80;;;;;;5074693;28;19912;-68
2023/05/03 09:26:39;;;;;;;;;;;19.90;77.10;;;;;;5075029;28;20004;-67
2023/05/03 09:29:06;;;;;;;;;;;19.80;76.90;;;;;;5073859;28;20142;-66
2023/05/03 09:31:33;;;;;;;;;;;19.80;77.50;;;;;;5076034;28;20357;-67
2023/05/03 09:34:00;;;;;;;;;;;19.60;77.90;;;;;;5073307;28;19908;-67
2023/05/03 09:36:27;;;;;;;;;;;19.60;78.30;;;;;;5072755;28;19926;-67
2023/05/03 09:38:54;;;;;;;;;;;19.50;78.40;;;;;;5075877;28;19919;-67
2023/05/03 09:41:27;;;;;;;;;;;19.40;78.40;;;;;;5073698;28;20347;-67
2023/05/03 09:43:55;;;;;;;;;;;19.30;79.00;;;;;;5073232;28;19912;-67
2023/05/03 09:46:26;;;;;;;;;;;19.20;78.70;;;;;;5071725;28;19984;-67
2023/05/03 09:48:54;;;;;;;;;;;19.10;78.80;;;;;;5076036;28;20281;-68
2023/05/03 09:51:21;;;;;;;;;;;19.00;79.10;;;;;;5070044;28;20016;-67
2023/05/03 09:53:48;;;;;;;;;;;18.90;79.60;;;;;;5075964;28;19907;-68
2023/05/03 09:56:16;;;;;;;;;;;18.90;79.00;;;;;;5073105;28;19915;-68
2023/05/03 09:58:42;;;;;;;;;;;18.80;78.30;;;;;;5074840;28;19920;-68
2023/05/03 10:01:09;;;;;;;;;;;18.80;78.20;;;;;;5067378;28;19934;-67
2023/05/03 10:03:39;;;;;;;;;;;18.70;77.50;;;;;;5074774;28;19920;-69
2023/05/03 10:06:08;;;;;;;;;;;18.70;77.30;;;;;;5073334;28;19926;-67
2023/05/03 10:08:42;;;;;;;;;;;18.70;77.60;;;;;;5074091;28;19916;-67
2023/05/03 10:11:11;;;;;;;;;;;18.60;77.70;;;;;;5075125;28;19912;-66
2023/05/03 10:13:37;;;;;;;;;;;18.60;77.80;;;;;;5075574;28;19923;-66
2023/05/03 10:16:09;;;;;;;;;;;18.60;78.70;;;;;;5075950;28;19912;-67
2023/05/03 10:18:40;;;;;;;;;;;18.50;78.60;;;;;;5071433;28;20007;-65
2023/05/03 10:21:09;;;;;;;;;;;18.40;78.40;;;;;;5083534;28;19923;-65
2023/05/03 10:23:35;;;;;;;;;;;18.40;78.70;;;;;;5074918;28;19919;-64
2023/05/03 10:26:10;;;;;;;;;;;18.30;78.20;;;;;;5074591;28;20021;-65
2023/05/03 10:28:36;;;;;;;;;;;18.20;78.20;;;;;;5074108;28;19947;-67
2023/05/03 10:31:03;;;;;;;;;;;18.20;78.20;;;;;;5075100;28;19955;-67
2023/05/03 10:33:31;;;;;;;;;;;18.20;78.40;;;;;;5073290;28;19919;-66
2023/05/03 10:36:01;;;;;;;;;;;18.10;78.10;;;;;;5076234;28;19923;-68
2023/05/03 10:38:28;;;;;;;;;;;18.00;78.30;;;;;;5071504;28;19916;-65
2023/05/03 10:40:56;;;;;;;;;;;18.00;78.30;;;;;;5074687;28;19924;-67
2023/05/03 10:43:31;;;;;;;;;;;17.90;78.20;;;;;;5070137;28;19913;-66
2023/05/03 10:46:00;;;;;;;;;;;17.90;77.70;;;;;;5074192;28;19938;-67
2023/05/03 10:48:27;;;;;;;;;;;17.90;77.40;;;;;;5072243;28;19908;-67
2023/05/03 10:50:55;;;;;;;;;;;17.80;77.40;;;;;;5074782;28;19912;-67
2023/05/03 10:53:35;;;;;;;;;;;17.80;77.00;;;;;;5072171;28;20077;-67
2023/05/03 10:56:07;;;;;;;;;;;17.80;76.90;;;;;;5074647;28;19908;-68
2023/05/03 10:58:35;;;;;;;;;;;17.70;77.10;;;;;;5072083;28;19924;-69
2023/05/03 11:01:03;;;;;;;;;;;17.70;77.10;;;;;;5074636;28;19912;-68
2023/05/03 11:03:43;;;;;;;;;;;17.90;77.30;;;;;;5077196;28;20045;-69
2023/05/03 11:06:10;;;;;;;;;;;17.60;77.10;;;;;;5074403;28;20424;-66
2023/05/03 11:08:37;;;;;;;;;;;17.50;77.00;;;;;;5074771;28;19941;-68
2023/05/03 11:11:08;;;;;;;;;;;17.50;76.90;;;;;;5074181;28;20307;-67
2023/05/03 11:13:35;;;;;;;;;;;17.40;76.50;;;;;;5075356;28;20373;-68
2023/05/03 11:16:04;;;;;;;;;;;17.50;76.80;;;;;;5075649;28;19959;-66
2023/05/03 11:18:31;;;;;;;;;;;17.50;76.60;;;;;;5075686;28;19912;-68
2023/05/03 11:20:58;;;;;;;;;;;17.40;76.70;;;;;;5073546;28;19919;-67
2023/05/03 11:23:28;;;;;;;;;;;17.50;76.10;;;;;;5078459;28;19908;-68
2023/05/03 11:25:56;;;;;;;;;;;17.40;76.40;;;;;;5074338;28;20580;-68
2023/05/03 11:28:23;;;;;;;;;;;17.20;76.10;;;;;;5078472;28;20060;-66
2023/05/03 11:30:50;;;;;;;;;;;17.40;75.90;;;;;;5074694;28;19908;-65
2023/05/03 11:33:17;;;;;;;;;;;17.40;75.60;;;;;;5077077;28;20522;-68
2023/05/03 11:35:43;;;;;;;;;;;17.30;75.50;;;;;;5056149;28;19947;-66
2023/05/03 11:38:10;;;;;;;;;;;17.30;75.40;;;;;;5077318;28;19954;-68
2023/05/03 11:40:38;;;;;;;;;;;17.30;75.50;;;;;;5077974;28;19924;-67
2023/05/03 11:43:08;;;;;;;;;;;17.30;75.70;;;;;;5076044;28;19908;-67
2023/05/03 11:45:38;;;;;;;;;;;17.30;75.90;;;;;;5077991;28;19999;-67
2023/05/03 11:48:05;;;;;;;;;;;17.30;75.50;;;;;;5077365;28;19958;-66
2023/05/03 11:50:47;;;;;;;;;;;17.20;75.50;;;;;;5077510;28;19908;-66
2023/05/03 11:53:14;;;;;;;;;;;17.20;75.30;;;;;;5078478;28;19922;-67
2023/05/03 11:55:42;;;;;;;;;;;17.20;75.50;;;;;;5075192;28;19973;-68
2023/05/03 11:58:11;;;;;;;;;;;17.20;75.80;;;;;;5078234;28;19954;-67
2023/05/03 12:00:40;;;;;;;;;;;17.10;76.10;;;;;;5082519;28;19908;-67
2023/05/03 12:03:07;;;;;;;;;;;17.10;75.90;;;;;;5078860;28;19912;-67
2023/05/03 12:05:34;;;;;;;;;;;17.00;75.70;;;;;;5082008;28;19912;-67
2023/05/03 12:08:00;;;;;;;;;;;17.00;75.50;;;;;;5077700;28;19954;-68
2023/05/03 12:10:32;;;;;;;;;;;17.00;75.30;;;;;;5081919;28;19916;-68
2023/05/03 12:12:59;;;;;;;;;;;17.00;75.40;;;;;;5079334;28;20015;-68
2023/05/03 12:15:28;;;;;;;;;;;17.10;75.00;;;;;;5080759;28;19912;-66
2023/05/03 12:17:58;;;;;;;;;;;17.00;75.10;;;;;;5079134;28;19911;-65
2023/05/03 12:20:27;;;;;;;;;;;17.00;75.30;;;;;;5080653;28;19908;-67
2023/05/03 12:22:55;;;;;;;;;;;17.00;75.20;;;;;;5078077;28;19909;-66
2023/05/03 12:25:22;;;;;;;;;;;17.00;75.20;;;;;;5081302;28;19916;-67
2023/05/03 12:27:48;;;;;;;;;;;17.00;75.20;;;;;;5078042;28;19908;-68
2023/05/03 12:30:15;;;;;;;;;;;17.00;74.60;;;;;;5081764;28;19915;-68
2023/05/03 12:32:42;;;;;;;;;;;17.00;75.30;;;;;;5080695;28;19916;-68
2023/05/03 12:35:08;;;;;;;;;;;17.00;75.10;;;;;;5077379;28;19940;-68
2023/05/03 12:37:35;;;;;;;;;;;17.00;75.20;;;;;;5081210;28;19955;-67
2023/05/03 12:40:03;;;;;;;;;;;16.90;75.10;;;;;;5077911;28;20364;-65
2023/05/03 12:42:29;;;;;;;;;;;16.80;75.50;;;;;;5080361;28;20414;-68
2023/05/03 12:44:59;;;;;;;;;;;16.90;75.20;;;;;;5077929;28;19971;-67
2023/05/03 12:47:27;;;;;;;;;;;16.80;75.30;;;;;;5081046;28;19951;-68
2023/05/03 12:49:53;;;;;;;;;;;16.80;75.40;;;;;;5078744;28;19908;-68
2023/05/03 12:52:21;;;;;;;;;;;16.70;75.50;;;;;;5079207;28;19920;-67
2023/05/03 12:54:48;;;;;;;;;;;16.70;75.20;;;;;;5080545;28;19958;-66
2023/05/03 12:57:15;;;;;;;;;;;16.70;75.20;;;;;;5078752;28;19947;-67
2023/05/03 12:59:41;;;;;;;;;;;16.60;75.00;;;;;;5079938;28;19908;-66
2023/05/03 13:02:12;;;;;;;;;;;16.60;75.10;;;;;;5078694;28;19918;-67
2023/05/03 13:04:39;;;;;;;;;;;16.60;75.10;;;;;;5079563;28;19920;-67
2023/05/03 13:07:05;;;;;;;;;;;16.60;75.00;;;;;;5078268;28;19915;-67
2023/05/03 13:09:32;;;;;;;;;;;16.50;74.90;;;;;;5079764;28;19912;-69
2023/05/03 13:11:59;;;;;;;;;;;16.50;74.60;;;;;;5076951;28;20368;-66
2023/05/03 13:14:27;;;;;;;;;;;16.50;74.60;;;;;;5080829;28;19908;-67
2023/05/03 13:16:54;;;;;;;;;;;16.50;74.10;;;;;;5078949;28;20009;-69
2023/05/03 13:19:21;;;;;;;;;;;16.50;74.00;;;;;;5080158;28;20462;-67
2023/05/03 13:21:48;;;;;;;;;;;16.50;74.00;;;;;;5080349;28;19912;-65
2023/05/03 13:24:15;;;;;;;;;;;16.50;73.90;;;;;;5076122;28;19912;-67
2023/05/03 13:26:41;;;;;;;;;;;16.40;73.90;;;;;;5080494;28;19995;-67
2023/05/03 13:29:08;;;;;;;;;;;16.40;74.00;;;;;;5076029;28;19960;-65
2023/05/03 13:31:35;;;;;;;;;;;16.40;74.20;;;;;;5079276;28;20311;-67
2023/05/03 13:34:01;;;;;;;;;;;16.40;74.20;;;;;;5077454;28;19919;-65
2023/05/03 13:36:28;;;;;;;;;;;16.40;74.60;;;;;;5079895;28;19912;-68
2023/05/03 13:38:55;;;;;;;;;;;16.20;75.00;;;;;;5079343;28;19962;-68
2023/05/03 13:41:21;;;;;;;;;;;16.20;74.10;;;;;;5077814;28;19927;-66
2023/05/03 13:43:48;;;;;;;;;;;16.20;74.60;;;;;;5078918;28;19920;-65
2023/05/03 13:46:15;;;;;;;;;;;16.20;74.70;;;;;;5076591;28;19935;-65
2023/05/03 13:48:42;;;;;;;;;;;16.20;74.90;;;;;;5060462;28;20551;-65
2023/05/03 13:51:09;;;;;;;;;;;16.20;75.10;;;;;;5075664;28;19991;-65
2023/05/03 13:53:36;;;;;;;;;;;16.20;74.50;;;;;;5079970;28;19919;-68
2023/05/03 13:56:03;;;;;;;;;;;16.10;74.70;;;;;;5077404;28;19961;-65
2023/05/03 13:58:30;;;;;;;;;;;16.10;74.50;;;;;;5079753;28;20280;-66
2023/05/03 14:00:57;;;;;;;;;;;16.20;74.50;;;;;;5078967;28;19966;-66
2023/05/03 14:03:23;;;;;;;;;;;16.10;74.30;;;;;;5076800;28;20365;-64
2023/05/03 14:05:50;;;;;;;;;;;16.10;74.60;;;;;;5079417;28;20569;-66
2023/05/03 14:08:16;;;;;;;;;;;16.00;74.40;;;;;;5075460;28;19908;-65
2023/05/03 14:10:43;;;;;;;;;;;16.00;74.10;;;;;;5079689;28;19916;-68
2023/05/03 14:13:10;;;;;;;;;;;16.00;74.40;;;;;;5075690;28;19916;-66
2023/05/03 14:15:40;;;;;;;;;;;15.90;74.40;;;;;;5078498;28;19920;-64
2023/05/03 14:18:07;;;;;;;;;;;15.90;74.10;;;;;;5077418;28;19912;-66